Decoded Metar for UUMO ( in ) (IATA:) | Meteo·Mobile Aviation Weather
aviador You're here:

UUMO Decoded Metar

in
Report Time2018-10-19 09:30:00
UTC Time2018-10-19 09:57:40
Flight Rules vfr VFR
Wind240° at 8 kt
W.Decomp.*RWY 26: 7.5 kt HW 2.7 kt LCW
W.Rank240° ranks 3
Current wind is above 240° avg. (7.3)
Visibility9999 m
Phenomena:N/A
Clouds:N/A
Expected CloudBase > 2,400 ft AGL from Temp-Dew spread
CeilingNone
Temp17°C
Dew Point11°C (68% RH)
AAT14.5°C
QNH1015 hPa
Raw Report
METAR UUMO 190930Z 24004MPS 200V270 CAVOK 17/11 Q1015 R26/090060
NOSIG RMK QFE746/0995=

Extra information for UUMO:More info

Social comments